Time;durP1;ratioP1;P1;durP2;ratioP2;P2;SDS_P1;SDS_P2;PMS_P1;PMS_P2;Temp;Humidity;BMP_temperature;BMP_pressure;BME280_temperature;BME280_humidity;BME280_pressure;Samples;Min_cycle;Max_cycle;Signal;HPM_P1;HPM_P2
2023/06/17 00:02:05;;;;;;;1999.90;999.90;;;14.80;99.90;;;;;;5035796;28;20038;-78
2023/06/17 00:04:31;;;;;;;1999.90;999.90;;;14.80;99.90;;;;;;5034492;28;20472;-79
2023/06/17 00:06:57;;;;;;;1999.90;999.90;;;14.70;99.90;;;;;;5035600;28;20480;-79
2023/06/17 00:09:22;;;;;;;1999.90;999.90;;;14.70;99.90;;;;;;5035970;28;20085;-78
2023/06/17 00:11:48;;;;;;;1999.90;999.90;;;14.60;99.90;;;;;;5035633;28;20510;-79
2023/06/17 00:14:16;;;;;;;1999.90;999.90;;;14.60;99.90;;;;;;5035861;28;20121;-79
2023/06/17 00:16:43;;;;;;;1999.90;999.90;;;14.60;99.90;;;;;;5035580;28;20030;-79
2023/06/17 00:19:15;;;;;;;1999.90;999.90;;;14.50;99.90;;;;;;5036641;28;20032;-78
2023/06/17 00:21:49;;;;;;;1999.90;999.90;;;14.50;99.90;;;;;;5036311;28;20057;-78
2023/06/17 00:24:15;;;;;;;1999.90;999.90;;;14.50;99.90;;;;;;5034154;28;20057;-78
2023/06/17 00:26:41;;;;;;;1999.90;999.90;;;14.60;99.90;;;;;;5035250;28;20038;-78
2023/06/17 00:29:07;;;;;;;1999.90;999.90;;;14.50;99.90;;;;;;5035584;28;20415;-78
2023/06/17 00:31:33;;;;;;;1999.90;999.90;;;14.50;99.90;;;;;;5035357;28;20049;-79
2023/06/17 00:33:59;;;;;;;1999.90;999.90;;;14.60;99.90;;;;;;5035340;28;20030;-79
2023/06/17 00:36:25;;;;;;;1999.90;999.90;;;14.50;99.90;;;;;;5035393;28;20042;-80
2023/06/17 00:38:50;;;;;;;1999.90;999.90;;;14.40;99.90;;;;;;5035326;28;20034;-80
2023/06/17 00:41:16;;;;;;;1999.90;999.90;;;14.40;99.90;;;;;;5035197;28;20034;-78
2023/06/17 00:43:42;;;;;;;1999.90;999.90;;;14.40;99.90;;;;;;5035440;28;20029;-79
2023/06/17 00:46:29;;;;;;;1999.90;999.90;;;14.40;99.90;;;;;;5035043;28;20037;-78
2023/06/17 00:48:55;;;;;;;1999.90;999.90;;;14.40;99.90;;;;;;5015023;28;20566;-79
2023/06/17 00:51:20;;;;;;;1999.90;999.90;;;14.40;99.90;;;;;;5033543;28;20037;-79
2023/06/17 00:53:46;;;;;;;1999.90;999.90;;;14.30;99.90;;;;;;5035274;28;20037;-79
2023/06/17 00:56:12;;;;;;;1999.90;999.90;;;14.40;99.90;;;;;;5034903;28;20129;-80
2023/06/17 00:58:38;;;;;;;1999.90;999.90;;;14.30;99.90;;;;;;5035139;28;20038;-80
2023/06/17 01:01:04;;;;;;;1999.90;999.90;;;14.20;99.90;;;;;;5034947;28;20033;-79
2023/06/17 01:03:30;;;;;;;1999.90;999.90;;;14.20;99.90;;;;;;5035158;28;20038;-79
2023/06/17 01:05:59;;;;;;;1999.90;999.90;;;14.10;99.90;;;;;;5034923;28;20046;-78
2023/06/17 01:08:34;;;;;;;1999.90;999.90;;;14.00;99.90;;;;;;5034985;28;20034;-78
2023/06/17 01:11:04;;;;;;;1999.90;999.90;;;14.00;99.90;;;;;;5032603;28;20474;-78
2023/06/17 01:13:31;;;;;;;1999.90;999.90;;;13.90;99.90;;;;;;5035111;28;20029;-79
2023/06/17 01:15:59;;;;;;;1999.90;999.90;;;13.90;99.90;;;;;;5034743;28;20038;-79
2023/06/17 01:18:25;;;;;;;1999.90;999.90;;;13.90;99.90;;;;;;5034812;28;20463;-78
2023/06/17 01:20:53;;;;;;;1999.90;999.90;;;13.90;99.90;;;;;;5034721;28;20040;-80
2023/06/17 01:23:21;;;;;;;1999.90;999.90;;;13.90;99.90;;;;;;5034676;28;20026;-79
2023/06/17 01:25:47;;;;;;;1999.90;999.90;;;13.80;99.90;;;;;;5033122;28;20041;-79
2023/06/17 01:28:19;;;;;;;1999.90;999.90;;;13.80;99.90;;;;;;5033311;28;20092;-79
2023/06/17 01:30:47;;;;;;;1999.90;999.90;;;13.70;99.90;;;;;;5033242;28;20034;-79
2023/06/17 01:33:15;;;;;;;1999.90;999.90;;;13.60;99.90;;;;;;5034442;28;20034;-79
2023/06/17 01:35:47;;;;;;;1999.90;999.90;;;13.60;99.90;;;;;;5034465;28;20499;-80
2023/06/17 01:38:42;;;;;;;1999.90;999.90;;;13.60;99.90;;;;;;5034691;28;20034;-78
2023/06/17 01:41:29;;;;;;;1999.90;999.90;;;13.50;99.90;;;;;;5032872;28;20112;-79
2023/06/17 01:43:56;;;;;;;1999.90;999.90;;;13.50;99.90;;;;;;5034714;28;20490;-78
2023/06/17 01:46:24;;;;;;;1999.90;999.90;;;13.40;99.90;;;;;;5034205;28;20038;-79
2023/06/17 01:48:53;;;;;;;1999.90;999.90;;;13.40;99.90;;;;;;5033047;28;20030;-79
2023/06/17 01:51:19;;;;;;;1999.90;999.90;;;13.40;99.90;;;;;;5034059;28;20034;-78
2023/06/17 01:53:45;;;;;;;1999.90;999.90;;;13.40;99.90;;;;;;5034408;28;20062;-79
2023/06/17 01:56:11;;;;;;;1999.90;999.90;;;13.30;99.90;;;;;;5033955;28;20506;-79
2023/06/17 01:58:37;;;;;;;1999.90;999.90;;;13.30;99.90;;;;;;5034173;28;20034;-79
2023/06/17 02:01:02;;;;;;;1999.90;999.90;;;13.30;99.90;;;;;;5032064;28;20034;-80
2023/06/17 02:03:28;;;;;;;1999.90;999.90;;;13.20;99.90;;;;;;5032812;28;20432;-79
2023/06/17 02:05:54;;;;;;;1999.90;999.90;;;13.10;99.90;;;;;;5033956;28;20038;-78
2023/06/17 02:08:22;;;;;;;1999.90;999.90;;;13.10;99.90;;;;;;5032747;28;20084;-79
2023/06/17 02:10:48;;;;;;;1999.90;999.90;;;13.10;99.90;;;;;;5032642;28;20096;-79
2023/06/17 02:13:13;;;;;;;1999.90;999.90;;;13.10;99.90;;;;;;5034137;28;20080;-80
2023/06/17 02:15:42;;;;;;;1999.90;999.90;;;13.00;99.90;;;;;;5034055;28;20038;-79
2023/06/17 02:18:08;;;;;;;1999.90;999.90;;;13.00;99.90;;;;;;5034115;28;20026;-79
2023/06/17 02:20:34;;;;;;;1999.90;999.90;;;13.10;99.90;;;;;;5034127;28;20109;-79
2023/06/17 02:22:59;;;;;;;1999.90;999.90;;;13.10;99.90;;;;;;5032307;28;20117;-79
2023/06/17 02:25:25;;;;;;;1999.90;999.90;;;13.00;99.90;;;;;;5033844;28;20057;-79
2023/06/17 02:27:51;;;;;;;1999.90;999.90;;;12.90;99.90;;;;;;5033873;28;20042;-79
2023/06/17 02:30:17;;;;;;;1999.90;999.90;;;12.90;99.90;;;;;;5026308;28;20034;-79
2023/06/17 02:32:42;;;;;;;1999.90;999.90;;;12.90;99.90;;;;;;5033829;28;20034;-79
2023/06/17 02:35:10;;;;;;;1999.90;999.90;;;12.90;99.90;;;;;;5033891;28;20083;-79
2023/06/17 02:37:36;;;;;;;1999.90;999.90;;;12.90;99.90;;;;;;5033843;28;20038;-79
2023/06/17 02:40:05;;;;;;;1999.90;999.90;;;12.80;99.90;;;;;;5033999;28;20026;-79
2023/06/17 02:42:31;;;;;;;1999.90;999.90;;;12.80;99.90;;;;;;5033460;28;20040;-79
2023/06/17 02:44:56;;;;;;;1999.90;999.90;;;12.70;99.90;;;;;;5036376;28;20034;-79
2023/06/17 02:47:22;;;;;;;1999.90;999.90;;;12.70;99.90;;;;;;5036208;28;20133;-79
2023/06/17 02:49:47;;;;;;;1999.90;999.90;;;12.60;99.90;;;;;;5035406;28;20128;-79
2023/06/17 02:52:13;;;;;;;1999.90;999.90;;;12.60;99.90;;;;;;5035360;28;20088;-78
2023/06/17 02:54:38;;;;;;;1999.90;999.90;;;12.70;99.90;;;;;;5037181;28;20182;-79
2023/06/17 02:57:04;;;;;;;1999.90;999.90;;;12.60;99.90;;;;;;5035117;28;20045;-79
2023/06/17 02:59:33;;;;;;;1999.90;999.90;;;12.60;99.90;;;;;;5037011;28;20471;-78
2023/06/17 03:01:59;;;;;;;1999.90;999.90;;;12.60;99.90;;;;;;5035276;28;20037;-79
2023/06/17 03:04:25;;;;;;;1999.90;999.90;;;12.50;99.90;;;;;;5036994;28;20060;-79
2023/06/17 03:06:52;;;;;;;1999.90;999.90;;;12.50;99.90;;;;;;5036742;28;20065;-78
2023/06/17 03:09:18;;;;;;;1999.90;999.90;;;12.50;99.90;;;;;;5035385;28;20403;-79
2023/06/17 03:11:44;;;;;;;1999.90;999.90;;;12.50;99.90;;;;;;5036583;28;20033;-79
2023/06/17 03:14:09;;;;;;;1999.90;999.90;;;12.40;99.90;;;;;;5036568;28;20427;-79
2023/06/17 03:16:38;;;;;;;1999.90;999.90;;;12.40;99.90;;;;;;5036723;28;20120;-79
2023/06/17 03:19:03;;;;;;;1999.90;999.90;;;12.40;99.90;;;;;;5036490;28;20084;-79
2023/06/17 03:21:30;;;;;;;1999.90;999.90;;;12.40;99.90;;;;;;5036538;28;20045;-79
2023/06/17 03:23:59;;;;;;;1999.90;999.90;;;12.40;99.90;;;;;;5036722;28;20120;-79
2023/06/17 03:26:25;;;;;;;1999.90;999.90;;;12.50;99.90;;;;;;5036188;28;20044;-79
2023/06/17 03:28:53;;;;;;;1999.90;999.90;;;12.50;99.90;;;;;;5036539;28;20506;-80
2023/06/17 03:31:21;;;;;;;1999.90;999.90;;;12.60;99.90;;;;;;5034845;28;20499;-79
2023/06/17 03:33:52;;;;;;;1999.90;999.90;;;12.60;99.90;;;;;;5036404;28;20022;-79
2023/06/17 03:36:19;;;;;;;1999.90;999.90;;;12.60;99.90;;;;;;5034630;28;20034;-79
2023/06/17 03:38:45;;;;;;;1999.90;999.90;;;12.50;99.90;;;;;;5036223;28;20029;-79
2023/06/17 03:41:11;;;;;;;1999.90;999.90;;;12.50;99.90;;;;;;5036123;28;20389;-79
2023/06/17 03:43:37;;;;;;;1999.90;999.90;;;12.50;99.90;;;;;;5036452;28;20034;-78
2023/06/17 03:46:02;;;;;;;1999.90;999.90;;;12.50;99.90;;;;;;5035874;28;20053;-79
2023/06/17 03:48:28;;;;;;;1999.90;999.90;;;12.50;99.90;;;;;;5036019;28;20568;-79
2023/06/17 03:50:53;;;;;;;1999.90;999.90;;;12.50;99.90;;;;;;5035878;28;20417;-79
2023/06/17 03:53:19;;;;;;;1999.90;999.90;;;12.60;99.90;;;;;;5036147;28;20084;-79
2023/06/17 03:55:44;;;;;;;1999.90;999.90;;;12.70;99.90;;;;;;5034050;28;20137;-79
2023/06/17 03:58:14;;;;;;;1999.90;999.90;;;12.60;99.90;;;;;;5034683;28;20128;-79
2023/06/17 04:00:41;;;;;;;1999.90;999.90;;;12.60;99.90;;;;;;5034562;28;20041;-78
2023/06/17 04:03:07;;;;;;;1999.90;999.90;;;12.60;99.90;;;;;;5035803;28;20030;-79
2023/06/17 04:05:33;;;;;;;1999.90;999.90;;;12.60;99.90;;;;;;5035679;28;20044;-79
2023/06/17 04:08:02;;;;;;;1999.90;999.90;;;12.60;99.90;;;;;;5036018;28;20519;-79
2023/06/17 04:10:29;;;;;;;1999.90;999.90;;;12.70;99.90;;;;;;5034496;28;20099;-79
2023/06/17 04:12:54;;;;;;;1999.90;999.90;;;12.60;99.90;;;;;;5034252;28;20172;-79
2023/06/17 04:15:20;;;;;;;1999.90;999.90;;;12.70;99.90;;;;;;5035820;28;20439;-80
2023/06/17 04:17:45;;;;;;;1999.90;999.90;;;12.80;99.90;;;;;;5035339;28;20856;-79
2023/06/17 04:20:12;;;;;;;1999.90;999.90;;;12.80;99.90;;;;;;5034002;28;20034;-79
2023/06/17 04:22:39;;;;;;;1999.90;999.90;;;12.90;99.90;;;;;;5035461;28;20117;-79
2023/06/17 04:25:05;;;;;;;1999.90;999.90;;;12.80;99.90;;;;;;5035636;28;20041;-79
2023/06/17 04:27:31;;;;;;;1999.90;999.90;;;12.90;99.90;;;;;;5035169;28;20169;-79
2023/06/17 04:29:57;;;;;;;1999.90;999.90;;;12.90;99.90;;;;;;5035445;28;20074;-79
2023/06/17 04:32:26;;;;;;;1999.90;999.90;;;12.90;99.90;;;;;;5035376;28;20033;-79
2023/06/17 04:34:52;;;;;;;1999.90;999.90;;;13.00;99.90;;;;;;5033923;28;20085;-79
2023/06/17 04:37:18;;;;;;;1999.90;999.90;;;13.00;99.90;;;;;;5035596;28;20045;-80
2023/06/17 04:39:44;;;;;;;1999.90;999.90;;;13.00;99.90;;;;;;5035586;28;20041;-80
2023/06/17 04:42:10;;;;;;;1999.90;999.90;;;13.10;99.90;;;;;;5035509;28;21191;-79
2023/06/17 04:44:39;;;;;;;1999.90;999.90;;;13.20;99.90;;;;;;5035391;28;20062;-79
2023/06/17 04:47:12;;;;;;;1999.90;999.90;;;13.20;99.90;;;;;;5034794;28;20500;-80
2023/06/17 04:49:41;;;;;;;1999.90;999.90;;;13.30;99.90;;;;;;5034967;28;20026;-79
2023/06/17 04:52:11;;;;;;;1999.90;999.90;;;13.40;99.90;;;;;;5033579;28;20045;-79
2023/06/17 04:54:37;;;;;;;1999.90;999.90;;;13.40;99.90;;;;;;5035065;28;20041;-79
2023/06/17 04:57:04;;;;;;;1999.90;999.90;;;13.50;99.90;;;;;;5033347;28;20048;-79
2023/06/17 04:59:30;;;;;;;1999.90;999.90;;;13.60;99.90;;;;;;5035208;28;20444;-79
2023/06/17 05:01:55;;;;;;;1999.90;999.90;;;13.60;99.90;;;;;;5035016;28;20040;-80
2023/06/17 05:04:21;;;;;;;1999.90;999.90;;;13.60;99.90;;;;;;5035179;28;20109;-79
2023/06/17 05:06:47;;;;;;;1999.90;999.90;;;13.60;99.90;;;;;;5032926;28;20076;-79
2023/06/17 05:09:13;;;;;;;1999.90;999.90;;;13.70;99.90;;;;;;5035178;28;20025;-79
2023/06/17 05:11:40;;;;;;;1999.90;999.90;;;13.70;99.90;;;;;;5034735;28;20484;-79
2023/06/17 05:14:06;;;;;;;1999.90;999.90;;;13.80;99.90;;;;;;5035087;28;20049;-79
2023/06/17 05:16:31;;;;;;;1999.90;999.90;;;13.90;99.90;;;;;;5034638;28;20056;-80
2023/06/17 05:18:57;;;;;;;1999.90;999.90;;;14.00;99.90;;;;;;5033355;28;20029;-79
2023/06/17 05:21:23;;;;;;;1999.90;999.90;;;14.10;99.90;;;;;;5034485;28;20046;-80
2023/06/17 05:23:48;;;;;;;1999.90;999.90;;;14.20;99.90;;;;;;5035367;28;20037;-79
2023/06/17 05:26:14;;;;;;;1999.90;999.90;;;14.30;99.90;;;;;;5034518;28;20038;-80
2023/06/17 05:28:40;;;;;;;1999.90;999.90;;;14.40;99.90;;;;;;5034805;28;20034;-80
2023/06/17 05:31:05;;;;;;;1999.90;999.90;;;14.50;99.90;;;;;;5034654;28;20042;-81
2023/06/17 05:33:31;;;;;;;1999.90;999.90;;;14.60;99.90;;;;;;5033246;28;20034;-79
2023/06/17 05:36:00;;;;;;;1999.90;999.90;;;14.70;99.90;;;;;;5034521;28;20049;-79
2023/06/17 05:38:29;;;;;;;1999.90;999.90;;;14.80;99.90;;;;;;5034831;28;20030;-79
2023/06/17 05:40:55;;;;;;;1999.90;999.90;;;14.90;99.90;;;;;;5034532;28;20042;-80
2023/06/17 05:43:20;;;;;;;1999.90;999.90;;;15.00;99.90;;;;;;5034835;28;20038;-79
2023/06/17 05:45:46;;;;;;;1999.90;999.90;;;15.20;99.90;;;;;;5034758;28;20049;-80
2023/06/17 05:48:15;;;;;;;1999.90;999.90;;;15.30;99.90;;;;;;5034893;28;20036;-80
2023/06/17 05:50:40;;;;;;;1999.90;999.90;;;15.40;99.90;;;;;;5034964;28;20030;-80
2023/06/17 05:53:06;;;;;;;1999.90;999.90;;;15.50;99.90;;;;;;5032994;28;20030;-80
2023/06/17 05:55:31;;;;;;;1999.90;999.90;;;15.60;99.90;;;;;;5034521;28;20065;-80
2023/06/17 05:57:57;;;;;;;1999.90;999.90;;;15.80;99.90;;;;;;5034884;28;20085;-80
2023/06/17 06:00:23;;;;;;;1999.90;999.90;;;15.80;99.90;;;;;;5033494;28;20065;-80
2023/06/17 06:02:49;;;;;;;1999.90;999.90;;;15.90;99.90;;;;;;5034550;28;20030;-80
2023/06/17 06:05:15;;;;;;;1999.90;999.90;;;16.00;99.90;;;;;;5034494;28;20069;-80
2023/06/17 06:07:43;;;;;;;1999.90;999.90;;;16.10;99.90;;;;;;5033259;28;20121;-80
2023/06/17 06:10:10;;;;;;;1999.90;999.90;;;16.10;99.90;;;;;;5035045;28;20041;-80
2023/06/17 06:12:36;;;;;;;1999.90;999.90;;;16.20;99.90;;;;;;5034683;28;20484;-80
2023/06/17 06:15:02;;;;;;;1999.90;999.90;;;16.30;99.90;;;;;;5034630;28;20038;-79
2023/06/17 06:17:28;;;;;;;1999.90;999.90;;;16.40;99.90;;;;;;5035114;28;20044;-79
2023/06/17 06:19:53;;;;;;;1999.90;999.90;;;16.50;99.90;;;;;;5038403;28;20121;-80
2023/06/17 06:22:19;;;;;;;1999.90;999.90;;;16.70;99.90;;;;;;5037937;28;20080;-79
2023/06/17 06:24:45;;;;;;;1999.90;999.90;;;16.70;99.90;;;;;;5036608;28;20038;-79
2023/06/17 06:27:11;;;;;;;1999.90;999.90;;;16.90;99.90;;;;;;5038015;28;20124;-79
2023/06/17 06:29:37;;;;;;;1999.90;999.90;;;17.00;99.90;;;;;;5037401;28;20551;-78
2023/06/17 06:32:03;;;;;;;1999.90;999.90;;;17.10;99.90;;;;;;5035800;28;20038;-78
2023/06/17 06:34:28;;;;;;;1999.90;999.90;;;17.30;99.90;;;;;;5037405;28;20477;-79
2023/06/17 06:36:58;;;;;;;1999.90;999.90;;;17.40;99.90;;;;;;5037279;28;20475;-76
2023/06/17 06:39:24;;;;;;;1999.90;999.90;;;17.50;99.90;;;;;;5041798;28;20034;-80
2023/06/17 06:41:49;;;;;;;1999.90;999.90;;;17.60;99.90;;;;;;5038682;28;20040;-77
2023/06/17 06:44:16;;;;;;;1999.90;999.90;;;17.80;99.90;;;;;;5041076;28;20041;-78
2023/06/17 06:46:41;;;;;;;1999.90;999.90;;;17.90;99.90;;;;;;5041058;28;20038;-82
2023/06/17 06:49:07;;;;;;;1999.90;999.90;;;18.10;99.90;;;;;;5033526;28;20463;-82
2023/06/17 06:51:33;;;;;;;1999.90;999.90;;;18.30;99.30;;;;;;5040084;28;20030;-83
2023/06/17 06:53:58;;;;;;;1999.90;999.90;;;18.30;99.10;;;;;;5042138;28;20031;-81
2023/06/17 06:56:24;;;;;;;1999.90;999.90;;;18.40;98.90;;;;;;5040745;28;20476;-81
2023/06/17 06:58:50;;;;;;;1999.90;999.90;;;18.70;98.50;;;;;;5041877;28;20038;-80
2023/06/17 07:01:16;;;;;;;1999.90;999.90;;;18.90;98.10;;;;;;5052675;28;20044;-79
2023/06/17 07:03:42;;;;;;;1999.90;999.90;;;18.90;97.80;;;;;;5045603;28;20037;-79
2023/06/17 07:06:07;;;;;;;1999.90;999.90;;;19.30;97.70;;;;;;5031428;28;20042;-82
2023/06/17 07:08:34;;;;;;;1999.90;999.90;;;19.50;96.80;;;;;;5035242;28;20041;-81
2023/06/17 07:10:59;;;;;;;1999.90;999.90;;;19.60;96.30;;;;;;5022647;28;20041;-74
2023/06/17 07:13:25;;;;;;;1999.90;999.90;;;19.70;96.20;;;;;;5028731;28;20396;-73
2023/06/17 07:15:50;;;;;;;1999.90;999.90;;;19.90;96.20;;;;;;5021245;28;20034;-83
2023/06/17 07:18:16;;;;;;;1999.90;999.90;;;20.10;95.20;;;;;;5033996;28;20041;-81
2023/06/17 07:20:42;;;;;;;1999.90;999.90;;;20.30;95.10;;;;;;5038930;28;20045;-82
2023/06/17 07:23:07;;;;;;;1999.90;999.90;;;20.30;94.60;;;;;;5039794;28;20034;-82
2023/06/17 07:25:33;;;;;;;1999.90;999.90;;;20.50;94.60;;;;;;5037833;28;20041;-81
2023/06/17 07:28:01;;;;;;;1999.90;999.90;;;20.60;94.10;;;;;;5036467;28;20042;-82
2023/06/17 07:30:27;;;;;;;1999.90;999.90;;;20.90;93.40;;;;;;5037605;28;20042;-82
2023/06/17 07:32:53;;;;;;;1999.90;999.90;;;21.20;92.80;;;;;;5020373;28;20042;-81
2023/06/17 07:35:18;;;;;;;1999.90;999.90;;;21.30;92.50;;;;;;5023404;28;20038;-82
2023/06/17 07:37:44;;;;;;;1999.90;999.90;;;21.40;93.00;;;;;;5029998;28;20065;-81
2023/06/17 07:40:11;;;;;;;1999.90;999.90;;;21.70;92.10;;;;;;5036351;28;20038;-81
2023/06/17 07:42:38;;;;;;;1999.90;999.90;;;22.00;91.60;;;;;;5037366;28;20458;-82
2023/06/17 07:45:04;;;;;;;1999.90;999.90;;;22.30;91.00;;;;;;5031526;28;20048;-82
2023/06/17 07:47:30;;;;;;;1999.90;999.90;;;22.50;90.60;;;;;;5028991;28;20042;-81
2023/06/17 07:49:56;;;;;;;1999.90;999.90;;;22.70;89.70;;;;;;5029914;28;20042;-81
2023/06/17 07:52:21;;;;;;;1999.90;999.90;;;22.80;90.20;;;;;;5036862;28;20038;-82
2023/06/17 07:54:47;;;;;;;1999.90;999.90;;;22.90;88.50;;;;;;5033318;28;20104;-81
2023/06/17 07:57:13;;;;;;;1999.90;999.90;;;23.30;85.80;;;;;;5034785;28;20038;-82
2023/06/17 07:59:41;;;;;;;1999.90;999.90;;;23.40;83.80;;;;;;5033413;28;20088;-82
2023/06/17 08:02:06;;;;;;;1999.90;999.90;;;23.60;80.80;;;;;;5038579;28;20084;-82
2023/06/17 08:04:32;;;;;;;1999.90;999.90;;;23.80;81.40;;;;;;5037122;28;20416;-82
2023/06/17 08:06:57;;;;;;;1999.90;999.90;;;24.00;80.70;;;;;;5029901;28;20038;-81
2023/06/17 08:09:23;;;;;;;1999.90;999.90;;;24.00;80.30;;;;;;5035506;28;20030;-82
2023/06/17 08:11:49;;;;;;;1999.90;999.90;;;23.70;80.70;;;;;;5038004;28;20157;-82
2023/06/17 08:14:15;;;;;;;1999.90;999.90;;;23.60;80.60;;;;;;5036963;28;20038;-82
2023/06/17 08:16:41;;;;;;;1999.90;999.90;;;24.00;80.20;;;;;;5033298;28;20582;-82
2023/06/17 08:19:07;;;;;;;1999.90;999.90;;;24.20;75.60;;;;;;5030065;28;20045;-81
2023/06/17 08:21:34;;;;;;;1999.90;999.90;;;24.10;76.60;;;;;;5037108;28;20041;-82
2023/06/17 08:24:18;;;;;;;1999.90;999.90;;;24.20;76.70;;;;;;5022036;28;20089;-81
2023/06/17 08:26:44;;;;;;;1999.90;999.90;;;24.40;80.20;;;;;;5028154;28;20061;-82
2023/06/17 08:29:13;;;;;;;1999.90;999.90;;;24.50;78.40;;;;;;5036953;28;20120;-82
2023/06/17 08:31:41;;;;;;;1999.90;999.90;;;24.80;77.90;;;;;;5020775;28;20040;-77
2023/06/17 08:34:07;;;;;;;1999.90;999.90;;;24.90;75.70;;;;;;5035135;28;20038;-77
2023/06/17 08:36:32;;;;;;;1999.90;999.90;;;25.10;74.80;;;;;;5026793;28;20121;-77
2023/06/17 08:38:58;;;;;;;1999.90;999.90;;;25.40;73.90;;;;;;5032885;28;20030;-78
2023/06/17 08:41:27;;;;;;;1999.90;999.90;;;25.70;71.90;;;;;;5029461;28;20052;-77
2023/06/17 08:43:57;;;;;;;1999.90;999.90;;;25.80;69.30;;;;;;5024586;28;20032;-77
2023/06/17 08:46:25;;;;;;;1999.90;999.90;;;25.80;70.10;;;;;;5030058;28;20146;-78
2023/06/17 08:48:52;;;;;;;1999.90;999.90;;;25.70;70.40;;;;;;5030585;28;20038;-78
2023/06/17 08:51:18;;;;;;;1999.90;999.90;;;25.90;70.00;;;;;;5030393;28;20033;-79
2023/06/17 08:53:45;;;;;;;1999.90;999.90;;;26.10;69.30;;;;;;5027358;28;20057;-78
2023/06/17 08:56:12;;;;;;;1999.90;999.90;;;26.10;66.70;;;;;;5022229;28;20042;-76
2023/06/17 08:58:38;;;;;;;1999.90;999.90;;;26.20;66.10;;;;;;5016312;28;20039;-76
2023/06/17 09:01:07;;;;;;;1999.90;999.90;;;26.20;66.40;;;;;;5024775;28;20034;-76
2023/06/17 09:03:36;;;;;;;1999.90;999.90;;;26.30;63.80;;;;;;5032749;28;20026;-76
2023/06/17 09:06:27;;;;;;;1999.90;999.90;;;26.20;65.30;;;;;;5033782;28;20502;-76
2023/06/17 09:08:54;;;;;;;1999.90;999.90;;;26.60;65.10;;;;;;5022944;28;20574;-76
2023/06/17 09:11:30;;;;;;;1999.90;999.90;;;26.60;64.30;;;;;;5025472;28;20042;-77
2023/06/17 09:13:59;;;;;;;1999.90;999.90;;;26.40;64.80;;;;;;5025477;28;20567;-75
2023/06/17 09:16:28;;;;;;;1999.90;999.90;;;26.40;61.50;;;;;;5027053;28;20042;-75
2023/06/17 09:18:55;;;;;;;1999.90;999.90;;;26.70;61.90;;;;;;5027529;28;20038;-75
2023/06/17 09:21:22;;;;;;;1999.90;999.90;;;26.70;60.70;;;;;;5024261;28;20030;-75
2023/06/17 09:23:58;;;;;;;1999.90;999.90;;;27.00;60.70;;;;;;5028459;28;20042;-75
2023/06/17 09:26:25;;;;;;;1999.90;999.90;;;27.20;60.90;;;;;;5033487;28;20053;-75
2023/06/17 09:28:51;;;;;;;1999.90;999.90;;;27.20;59.70;;;;;;5032285;28;20488;-74
2023/06/17 09:31:18;;;;;;;1999.90;999.90;;;27.20;60.00;;;;;;5018839;28;20038;-75
2023/06/17 09:33:45;;;;;;;1999.90;999.90;;;27.20;58.50;;;;;;5017573;28;20467;-75
2023/06/17 09:36:10;;;;;;;1999.90;999.90;;;27.30;58.00;;;;;;5027388;28;20169;-75
2023/06/17 09:38:37;;;;;;;1999.90;999.90;;;27.50;56.10;;;;;;5026047;28;20667;-75
2023/06/17 09:41:03;;;;;;;1999.90;999.90;;;27.80;55.50;;;;;;5031049;28;20034;-75
2023/06/17 09:43:29;;;;;;;1999.90;999.90;;;27.50;56.40;;;;;;5020232;28;20404;-76
2023/06/17 09:45:59;;;;;;;1999.90;999.90;;;27.40;56.70;;;;;;5027361;28;20034;-77
2023/06/17 09:48:33;;;;;;;1999.90;999.90;;;27.10;56.10;;;;;;5023505;28;20042;-77
2023/06/17 09:50:59;;;;;;;1999.90;999.90;;;27.40;55.30;;;;;;5026061;28;21134;-77
2023/06/17 09:53:27;;;;;;;1999.90;999.90;;;27.70;51.70;;;;;;5017287;28;20038;-77
2023/06/17 09:55:57;;;;;;;1999.90;999.90;;;28.00;52.90;;;;;;5020882;28;20424;-75
2023/06/17 09:58:26;;;;;;;1999.90;999.90;;;27.90;52.10;;;;;;5034130;28;20041;-75
2023/06/17 10:00:52;;;;;;;1999.90;999.90;;;27.80;51.90;;;;;;5036380;28;20030;-75
2023/06/17 10:03:18;;;;;;;1999.90;999.90;;;27.90;53.60;;;;;;5020165;28;20124;-75
2023/06/17 10:05:54;;;;;;;1999.90;999.90;;;28.00;54.20;;;;;;5032362;28;20117;-75
2023/06/17 10:08:22;;;;;;;1999.90;999.90;;;28.30;53.50;;;;;;5020663;28;20598;-75
2023/06/17 10:10:49;;;;;;;1999.90;999.90;;;28.40;52.50;;;;;;5034757;28;20092;-75
2023/06/17 10:13:19;;;;;;;1999.90;999.90;;;28.40;54.10;;;;;;5021469;28;20038;-75
2023/06/17 10:15:46;;;;;;;1999.90;999.90;;;28.40;52.60;;;;;;5035120;28;20030;-75
2023/06/17 10:18:13;;;;;;;1999.90;999.90;;;28.40;51.90;;;;;;5037225;28;20092;-75
2023/06/17 10:20:40;;;;;;;1999.90;999.90;;;28.40;51.60;;;;;;5036186;28;20029;-75
2023/06/17 10:23:06;;;;;;;1999.90;999.90;;;28.60;53.60;;;;;;5036511;28;20038;-75
2023/06/17 10:25:32;;;;;;;1999.90;999.90;;;28.80;51.10;;;;;;5026397;28;20031;-74
2023/06/17 10:28:00;;;;;;;1999.90;999.90;;;28.40;52.70;;;;;;5037176;28;20046;-74
2023/06/17 10:30:27;;;;;;;1999.90;999.90;;;28.40;51.70;;;;;;5025579;28;20662;-74
2023/06/17 10:33:03;;;;;;;1999.90;999.90;;;28.40;51.90;;;;;;5036999;28;20025;-77
2023/06/17 10:35:43;;;;;;;1999.90;999.90;;;28.20;54.20;;;;;;5031440;28;20112;-76
2023/06/17 10:38:10;;;;;;;1999.90;999.90;;;28.60;52.10;;;;;;5024976;28;20038;-76
2023/06/17 10:40:46;;;;;;;1999.90;999.90;;;29.10;51.90;;;;;;5024675;28;20412;-77
2023/06/17 10:43:13;;;;;;;1999.90;999.90;;;29.10;51.10;;;;;;5036900;28;20038;-77
2023/06/17 10:45:51;;;;;;;1999.90;999.90;;;29.20;50.60;;;;;;5035069;28;20472;-77
2023/06/17 10:48:29;;;;;;;1999.90;999.90;;;29.30;50.00;;;;;;5036995;28;20099;-77
2023/06/17 10:51:01;;;;;;;1999.90;999.90;;;29.70;49.70;;;;;;5028993;28;20042;-77
2023/06/17 10:53:31;;;;;;;1999.90;999.90;;;29.90;49.60;;;;;;5015536;28;20122;-77
2023/06/17 10:55:59;;;;;;;1999.90;999.90;;;29.80;50.70;;;;;;5017316;28;20035;-77
2023/06/17 10:58:33;;;;;;;1999.90;999.90;;;30.00;51.00;;;;;;5037239;28;20471;-77
2023/06/17 11:01:09;;;;;;;1999.90;999.90;;;30.30;48.60;;;;;;5035889;28;20480;-77
2023/06/17 11:03:36;;;;;;;1999.90;999.90;;;30.20;49.30;;;;;;5034983;28;20033;-76
2023/06/17 11:06:03;;;;;;;1999.90;999.90;;;29.70;49.90;;;;;;5035237;28;20034;-77
2023/06/17 11:08:30;;;;;;;1999.90;999.90;;;30.00;51.30;;;;;;5036332;28;20504;-77
2023/06/17 11:11:15;;;;;;;1999.90;999.90;;;29.60;49.20;;;;;;5036705;28;20034;-77
2023/06/17 11:13:43;;;;;;;1999.90;999.90;;;29.90;49.90;;;;;;5035302;28;20026;-76
2023/06/17 11:16:09;;;;;;;1999.90;999.90;;;30.20;49.50;;;;;;5036455;28;20491;-77
2023/06/17 11:18:36;;;;;;;1999.90;999.90;;;29.80;49.30;;;;;;5036690;28;20485;-76
2023/06/17 11:21:03;;;;;;;1999.90;999.90;;;30.00;48.90;;;;;;5034718;28;20041;-77
2023/06/17 11:23:29;;;;;;;1999.90;999.90;;;30.40;49.00;;;;;;5051322;22;20045;-75
2023/06/17 11:25:54;;;;;;;1999.90;999.90;;;30.00;49.00;;;;;;5036704;28;20042;-75
2023/06/17 11:28:21;;;;;;;1999.90;999.90;;;29.90;49.70;;;;;;5036541;28;20091;-75
2023/06/17 11:30:47;;;;;;;1999.90;999.90;;;30.20;47.10;;;;;;5036423;28;20502;-75
2023/06/17 11:33:12;;;;;;;1999.90;999.90;;;30.30;47.20;;;;;;5036143;28;20057;-75
2023/06/17 11:35:38;;;;;;;1999.90;999.90;;;29.80;46.90;;;;;;5036355;28;20498;-77
2023/06/17 11:38:05;;;;;;;1999.90;999.90;;;29.90;47.70;;;;;;5036407;28;20042;-75
2023/06/17 11:40:30;;;;;;;1999.90;999.90;;;30.00;47.40;;;;;;5036198;28;20066;-75
2023/06/17 11:42:57;;;;;;;1999.90;999.90;;;30.20;47.70;;;;;;5036164;28;20066;-75
2023/06/17 11:45:24;;;;;;;1999.90;999.90;;;29.90;47.30;;;;;;5036321;28;20113;-76
2023/06/17 11:47:50;;;;;;;1999.90;999.90;;;29.60;47.20;;;;;;5036249;28;20048;-76
2023/06/17 11:50:17;;;;;;;1999.90;999.90;;;30.00;47.40;;;;;;5036169;28;20498;-76
2023/06/17 11:52:53;;;;;;;1999.90;999.90;;;30.40;45.70;;;;;;5035835;28;20038;-76
2023/06/17 11:55:18;;;;;;;1999.90;999.90;;;30.40;46.60;;;;;;5036044;28;20029;-76
2023/06/17 11:57:44;;;;;;;1999.90;999.90;;;30.50;47.20;;;;;;5036193;28;20403;-75
2023/06/17 12:00:10;;;;;;;1999.90;999.90;;;30.70;46.30;;;;;;5036165;28;20551;-75